createdAt,value
2023-02-14T00:00:09.527Z,150192.06
2023-02-14T00:02:35.576Z,150205.97
2023-02-14T00:05:01.431Z,150211.00
2023-02-14T00:07:27.342Z,150187.03
2023-02-14T00:09:53.149Z,150197.09
2023-02-14T00:12:19.010Z,150161.78
2023-02-14T00:15:03.599Z,150164.31
2023-02-14T00:17:29.484Z,150160.53
2023-02-14T00:19:55.357Z,150142.88
2023-02-14T00:22:21.292Z,150155.50
2023-02-14T00:24:47.177Z,150171.91
2023-02-14T00:27:12.964Z,150169.38
2023-02-14T00:29:38.738Z,150149.22
2023-02-14T00:32:04.757Z,150158.03
2023-02-14T00:34:32.616Z,150151.72
2023-02-14T00:36:59.682Z,150146.66
2023-02-14T00:39:25.637Z,150135.34
2023-02-14T00:41:51.493Z,150131.56
2023-02-14T00:44:17.535Z,150129.00
2023-02-14T00:46:43.521Z,150170.66
2023-02-14T00:49:09.508Z,150118.94
2023-02-14T00:51:35.422Z,150082.38
2023-02-14T00:54:01.316Z,150097.50
2023-02-14T00:56:27.172Z,150100.03
2023-02-14T00:58:53.044Z,150113.91
2023-02-14T01:01:19.060Z,150095.00
2023-02-14T01:03:45.326Z,150121.47
2023-02-14T01:06:11.302Z,150072.28
2023-02-14T01:08:37.211Z,150069.75
2023-02-14T01:11:15.562Z,150092.44
2023-02-14T01:13:42.551Z,150054.63
2023-02-14T01:16:11.313Z,150048.34
2023-02-14T01:18:37.854Z,150057.13
2023-02-14T01:21:16.866Z,150069.75
2023-02-14T01:23:43.252Z,150055.88
2023-02-14T01:26:09.960Z,150098.78
2023-02-14T01:28:36.054Z,150092.44
2023-02-14T01:31:06.973Z,150108.84
2023-02-14T01:33:32.817Z,150101.28
2023-02-14T01:35:59.960Z,150074.78
2023-02-14T01:38:25.998Z,150039.50
2023-02-14T01:40:51.866Z,150042.06
2023-02-14T01:43:17.700Z,150060.94
2023-02-14T01:45:43.632Z,150050.84
2023-02-14T01:48:10.062Z,150030.69
2023-02-14T01:50:41.072Z,150050.84
2023-02-14T01:53:15.260Z,150042.06
2023-02-14T01:55:47.552Z,150049.59
2023-02-14T01:58:18.624Z,150044.56
2023-02-14T02:00:57.326Z,150023.16
2023-02-14T02:03:39.039Z,150000.41
2023-02-14T02:06:14.654Z,149989.09
2023-02-14T02:08:45.334Z,149946.22
2023-02-14T02:11:11.167Z,149937.44
2023-02-14T02:13:37.022Z,149947.47
2023-02-14T02:16:50.689Z,149994.13
2023-02-14T02:19:56.038Z,149953.81
2023-02-14T02:22:45.809Z,149963.88
2023-02-14T02:25:44.097Z,149858.03
2023-02-14T02:28:48.373Z,149860.59
2023-02-14T02:31:35.956Z,149840.38
2023-02-14T02:34:33.894Z,149820.22
2023-02-14T02:37:17.580Z,149850.47
2023-02-14T02:40:08.096Z,149810.19
2023-02-14T02:42:55.515Z,149818.97
2023-02-14T02:45:28.802Z,149820.22
2023-02-14T02:48:29.275Z,149835.34
2023-02-14T02:51:16.462Z,149827.81
2023-02-14T02:53:50.714Z,149782.44
2023-02-14T02:56:45.586Z,149793.81
2023-02-14T02:59:35.523Z,149779.94
2023-02-14T03:02:22.883Z,149771.16
2023-02-14T03:04:57.201Z,149763.56
2023-02-14T03:07:39.109Z,149722.03
2023-02-14T03:10:15.118Z,149703.13
2023-02-14T03:13:14.767Z,149694.28
2023-02-14T03:16:01.344Z,149725.78
2023-02-14T03:19:10.205Z,149706.91
2023-02-14T03:21:58.418Z,149703.13
2023-02-14T03:24:27.523Z,149732.06
2023-02-14T03:27:24.328Z,149747.19
2023-02-14T03:30:13.907Z,149738.41
2023-02-14T03:32:59.227Z,149727.03
2023-02-14T03:35:34.607Z,149710.66
2023-02-14T03:38:10.804Z,149699.38
2023-02-14T03:40:40.126Z,149696.81
2023-02-14T03:43:16.823Z,149709.41
2023-02-14T03:45:54.008Z,149675.41
2023-02-14T03:48:23.411Z,149683.00
2023-02-14T03:50:51.447Z,149666.63
2023-02-14T03:53:21.883Z,149706.91
2023-02-14T03:56:00.947Z,149681.75
2023-02-14T03:58:32.053Z,149686.75
2023-02-14T04:01:03.514Z,149607.41
2023-02-14T04:03:31.592Z,149626.31
2023-02-14T04:05:58.143Z,149611.22
2023-02-14T04:08:26.648Z,149563.38
2023-02-14T04:10:55.513Z,149552.03
2023-02-14T04:13:21.597Z,149588.53
2023-02-14T04:15:47.497Z,149599.88
2023-02-14T04:18:31.944Z,149617.50
2023-02-14T04:20:57.977Z,149623.78
2023-02-14T04:23:24.019Z,149681.75
2023-02-14T04:25:49.908Z,149722.03
2023-02-14T04:28:15.907Z,149664.09
2023-02-14T04:30:41.919Z,149650.25
2023-02-14T04:33:07.713Z,149659.03
2023-02-14T04:35:34.891Z,149710.66
2023-02-14T04:38:01.577Z,149683.00
2023-02-14T04:40:27.728Z,149716.94
2023-02-14T04:42:53.647Z,149727.03
2023-02-14T04:45:19.462Z,149718.25
2023-02-14T04:47:45.691Z,149718.25
2023-02-14T04:50:12.135Z,149725.78
2023-02-14T04:52:38.623Z,149768.59
2023-02-14T04:55:06.246Z,149781.19
2023-02-14T04:57:32.257Z,149800.09
2023-02-14T04:59:58.077Z,149808.94
2023-02-14T05:02:26.854Z,149851.75
2023-02-14T05:04:52.771Z,149829.09
2023-02-14T05:07:18.601Z,149825.31
2023-02-14T05:09:44.424Z,149806.38
2023-02-14T05:12:10.249Z,149821.50
2023-02-14T05:14:36.222Z,149810.19
2023-02-14T05:17:02.379Z,149803.84
2023-02-14T05:19:28.384Z,149810.19
2023-02-14T05:21:54.243Z,149791.28
2023-02-14T05:24:20.036Z,149816.47
2023-02-14T05:26:45.904Z,149839.13
2023-02-14T05:29:11.916Z,149851.75
2023-02-14T05:31:37.825Z,149836.63
2023-02-14T05:34:03.626Z,149835.34
2023-02-14T05:36:29.880Z,149846.72
2023-02-14T05:38:55.757Z,149840.38
2023-02-14T05:41:21.610Z,149816.47
2023-02-14T05:43:47.474Z,149803.84
2023-02-14T05:46:13.486Z,149821.50
2023-02-14T05:48:39.398Z,149797.56
2023-02-14T05:51:09.927Z,149761.06
2023-02-14T05:53:36.409Z,149732.06
2023-02-14T05:56:02.902Z,149757.28
2023-02-14T05:58:28.774Z,149745.94
2023-02-14T06:00:56.789Z,149747.19
2023-02-14T06:03:22.612Z,149724.53
2023-02-14T06:05:48.428Z,149730.81
2023-02-14T06:08:14.343Z,149733.31
2023-02-14T06:10:40.224Z,149722.03
2023-02-14T06:13:08.206Z,149727.03
2023-02-14T06:15:35.293Z,149722.03
2023-02-14T06:18:01.280Z,149701.88
2023-02-14T06:20:27.517Z,149701.88
2023-02-14T06:22:54.053Z,149689.28
2023-02-14T06:25:21.663Z,149656.53
2023-02-14T06:27:49.367Z,149646.47
2023-02-14T06:30:16.432Z,149664.09
2023-02-14T06:32:42.329Z,149664.09
2023-02-14T06:35:08.245Z,149704.38
2023-02-14T06:37:34.111Z,149694.28
2023-02-14T06:40:01.100Z,149684.25
2023-02-14T06:42:27.037Z,149704.38
2023-02-14T06:44:53.131Z,149691.78
2023-02-14T06:47:19.054Z,149723.28
2023-02-14T06:49:44.932Z,149719.50
2023-02-14T06:52:10.747Z,149713.19
2023-02-14T06:54:36.556Z,149693.03
2023-02-14T06:57:02.711Z,149718.25
2023-02-14T06:59:29.166Z,149711.94
2023-02-14T07:01:54.963Z,149696.81
2023-02-14T07:04:20.812Z,149769.84
2023-02-14T07:06:46.851Z,149745.94
2023-02-14T07:09:17.052Z,149766.06
2023-02-14T07:11:44.568Z,149766.06
2023-02-14T07:14:10.977Z,149757.28
2023-02-14T07:16:36.991Z,149782.44
2023-02-14T07:19:02.838Z,149825.31
2023-02-14T07:21:29.068Z,149835.34
2023-02-14T07:23:54.926Z,149826.56
2023-02-14T07:26:20.739Z,149792.56
2023-02-14T07:28:48.506Z,149805.13
2023-02-14T07:31:16.192Z,149808.94
2023-02-14T07:33:42.083Z,149813.97
2023-02-14T07:36:08.575Z,149812.69
2023-02-14T07:38:35.398Z,149820.22
2023-02-14T07:41:01.677Z,149842.94
2023-02-14T07:43:27.951Z,149849.22
2023-02-14T07:45:53.936Z,149839.13
2023-02-14T07:48:19.822Z,149849.22
2023-02-14T07:50:45.923Z,149840.38
2023-02-14T07:53:11.762Z,149876.91
2023-02-14T07:55:38.841Z,149892.03
2023-02-14T07:58:04.649Z,149892.03
2023-02-14T08:00:30.440Z,149904.66
2023-02-14T08:02:56.396Z,149912.19
2023-02-14T08:05:22.454Z,149942.47
2023-02-14T08:07:48.405Z,149942.47
2023-02-14T08:10:14.548Z,149947.47
2023-02-14T08:12:58.468Z,149922.31
2023-02-14T08:15:52.195Z,149939.94
2023-02-14T08:18:20.082Z,149946.22
2023-02-14T08:20:50.420Z,150020.59
2023-02-14T08:23:17.833Z,150039.50
2023-02-14T08:25:43.846Z,150000.41
2023-02-14T08:28:09.921Z,150005.50
2023-02-14T08:30:37.430Z,150016.81
2023-02-14T08:33:04.144Z,150058.44
2023-02-14T08:35:29.996Z,150049.59
2023-02-14T08:37:55.826Z,150042.06
2023-02-14T08:40:21.711Z,150053.38
2023-02-14T08:42:47.490Z,150087.41
2023-02-14T08:45:13.797Z,150093.75
2023-02-14T08:47:39.655Z,150136.59
2023-02-14T08:50:08.985Z,150129.00
2023-02-14T08:52:34.803Z,150123.97
2023-02-14T08:55:02.024Z,150192.06
2023-02-14T08:57:28.148Z,150231.16
2023-02-14T08:59:54.032Z,150192.06
2023-02-14T09:02:20.088Z,150200.88
2023-02-14T09:04:46.039Z,150217.28
2023-02-14T09:07:12.997Z,150223.63
2023-02-14T09:09:39.010Z,150243.78
2023-02-14T09:12:06.597Z,150289.22
2023-02-14T09:14:37.583Z,150306.88
2023-02-14T09:17:05.221Z,150310.72
2023-02-14T09:19:36.484Z,150349.81
2023-02-14T09:22:04.307Z,150334.66
2023-02-14T09:24:31.847Z,150361.16
2023-02-14T09:26:58.027Z,150393.97
2023-02-14T09:29:24.695Z,150439.41
2023-02-14T09:32:00.025Z,150446.97
2023-02-14T09:34:27.619Z,150493.69
2023-02-14T09:36:53.466Z,150492.44
2023-02-14T09:39:19.506Z,150540.38
2023-02-14T09:42:11.861Z,150583.34
2023-02-14T09:44:56.177Z,150636.38
2023-02-14T09:47:29.888Z,150684.34
2023-02-14T09:49:57.563Z,150753.81
2023-02-14T09:52:27.665Z,150794.28
2023-02-14T09:54:57.170Z,150861.22
2023-02-14T09:57:38.133Z,150949.75
2023-02-14T10:00:39.406Z,151159.66
2023-02-14T10:03:31.132Z,151457.06
2023-02-14T10:06:35.841Z,151979.13
2023-02-14T10:09:25.933Z,152640.41
2023-02-14T10:11:53.128Z,154031.59
2023-02-14T10:14:27.301Z,154423.22
2023-02-14T10:16:59.005Z,155450.72
2023-02-14T10:19:27.118Z,156243.34
2023-02-14T10:21:57.222Z,156683.19
2023-02-14T10:24:47.063Z,156384.34
2023-02-14T10:27:35.718Z,156742.16
2023-02-14T10:30:10.456Z,157502.25
2023-02-14T10:33:01.824Z,157661.59
2023-02-14T10:35:42.230Z,156953.91
2023-02-14T10:38:26.571Z,157086.16
2023-02-14T10:41:22.404Z,157548.56
2023-02-14T10:43:57.100Z,158070.50
2023-02-14T10:46:58.423Z,157940.59
2023-02-14T10:49:36.414Z,157828.72
2023-02-14T10:52:26.191Z,158343.19
2023-02-14T10:55:04.902Z,158092.34
2023-02-14T10:57:33.270Z,158289.16
2023-02-14T11:00:23.910Z,157756.69
2023-02-14T11:02:58.653Z,157718.16
2023-02-14T11:05:32.123Z,157287.78
2023-02-14T11:08:01.322Z,157592.19
2023-02-14T11:10:33.439Z,157418.78
2023-02-14T11:12:59.544Z,157381.50
2023-02-14T11:15:30.705Z,156916.69
2023-02-14T11:18:23.565Z,157647.44
2023-02-14T11:21:03.897Z,158362.50
2023-02-14T11:23:39.597Z,158461.63
2023-02-14T11:26:29.192Z,158638.03
2023-02-14T11:28:59.396Z,158475.78
2023-02-14T11:31:31.544Z,158683.03
2023-02-14T11:33:58.308Z,158737.16
2023-02-14T11:36:25.623Z,158192.69
2023-02-14T11:39:13.806Z,157500.97
2023-02-14T11:41:55.592Z,157774.69
2023-02-14T11:44:24.408Z,157394.34
2023-02-14T11:46:53.967Z,157160.63
2023-02-14T11:49:34.648Z,157873.72
2023-02-14T11:52:10.398Z,157206.81
2023-02-14T11:54:39.738Z,156933.38
2023-02-14T11:57:32.215Z,156576.69
2023-02-14T12:00:01.292Z,156776.84
2023-02-14T12:02:39.894Z,156624.16
2023-02-14T12:05:14.929Z,156149.78
2023-02-14T12:07:43.668Z,156442.03
2023-02-14T12:10:12.482Z,156207.50
2023-02-14T12:12:51.979Z,156165.16
2023-02-14T12:15:38.076Z,155938.44
2023-02-14T12:18:36.165Z,156020.38
2023-02-14T12:21:17.165Z,156008.88
2023-02-14T12:24:13.857Z,156386.91
2023-02-14T12:27:21.847Z,156902.63
2023-02-14T12:29:58.932Z,156844.78
2023-02-14T12:32:31.156Z,156598.50
2023-02-14T12:35:15.315Z,156760.16
2023-02-14T12:38:05.174Z,156442.03
2023-02-14T12:40:46.557Z,156711.38
2023-02-14T12:43:33.689Z,155856.44
2023-02-14T12:46:38.268Z,156412.56
2023-02-14T12:49:04.147Z,157305.75
2023-02-14T12:51:39.824Z,157511.25
2023-02-14T12:54:11.680Z,156572.88
2023-02-14T12:56:43.603Z,156092.16
2023-02-14T12:59:15.470Z,156879.44
2023-02-14T13:02:15.385Z,157209.38
2023-02-14T13:05:12.301Z,157036.09
2023-02-14T13:07:49.548Z,157023.25
2023-02-14T13:10:39.571Z,157265.91
2023-02-14T13:13:17.404Z,157778.59
2023-02-14T13:16:12.153Z,157122.09
2023-02-14T13:18:37.912Z,157194.03
2023-02-14T13:21:08.991Z,157002.66
2023-02-14T13:23:41.897Z,157181.16
2023-02-14T13:26:27.239Z,157238.94
2023-02-14T13:29:01.039Z,157215.84
2023-02-14T13:31:27.749Z,157244.06
2023-02-14T13:34:00.065Z,157339.16
2023-02-14T13:36:26.554Z,157267.19
2023-02-14T13:41:28.136Z,157253.06
2023-02-14T13:43:57.981Z,156407.41
2023-02-14T13:46:50.270Z,156326.69
2023-02-14T13:49:19.051Z,156431.78
2023-02-14T13:51:51.847Z,155857.72
2023-02-14T13:54:29.456Z,155293.34
2023-02-14T13:56:56.475Z,154895.78
2023-02-14T13:59:34.845Z,154690.06
2023-02-14T14:02:27.620Z,154041.78
2023-02-14T14:04:54.824Z,153743.56
2023-02-14T14:07:30.095Z,153370.34
2023-02-14T14:09:59.301Z,152940.38
2023-02-14T14:12:27.920Z,152790.38
2023-02-14T14:15:06.018Z,152593.41
2023-02-14T14:17:36.984Z,152546.44
2023-02-14T14:20:15.183Z,152504.50
2023-02-14T14:22:59.377Z,152429.59
2023-02-14T14:25:35.585Z,152433.44
2023-02-14T14:28:01.398Z,152382.63
2023-02-14T14:30:32.315Z,152372.44
2023-02-14T14:33:16.412Z,152279.78
2023-02-14T14:36:02.386Z,152227.75
2023-02-14T14:38:30.372Z,152250.59
2023-02-14T14:40:57.069Z,152248.06
2023-02-14T14:43:34.325Z,152177.00
2023-02-14T14:46:01.754Z,152187.19
2023-02-14T14:48:38.715Z,152185.91
2023-02-14T14:51:16.333Z,152152.91
2023-02-14T14:54:07.782Z,152157.97
2023-02-14T14:56:49.108Z,152161.78
2023-02-14T14:59:22.727Z,152116.13
2023-02-14T15:01:50.741Z,152119.94
2023-02-14T15:04:24.203Z,152112.34
2023-02-14T15:06:51.169Z,152072.97
2023-02-14T15:09:31.069Z,152066.63
2023-02-14T15:12:19.116Z,152067.88
2023-02-14T15:14:53.892Z,152069.16
2023-02-14T15:17:32.175Z,152046.31
2023-02-14T15:20:06.020Z,152070.41
2023-02-14T15:22:50.273Z,152001.97
2023-02-14T15:25:20.914Z,151976.59
2023-02-14T15:27:47.376Z,151963.94
2023-02-14T15:30:19.387Z,151957.56
2023-02-14T15:32:48.777Z,151923.34
2023-02-14T15:35:17.063Z,151920.81
2023-02-14T15:37:44.559Z,151939.81
2023-02-14T15:40:19.354Z,151913.22
2023-02-14T15:42:45.669Z,151917.00
2023-02-14T15:45:22.996Z,151896.75
2023-02-14T15:47:55.209Z,151853.59
2023-02-14T15:50:25.349Z,151889.09
2023-02-14T15:52:59.377Z,151859.97
2023-02-14T15:55:26.879Z,151835.88
2023-02-14T15:58:05.160Z,151813.06
2023-02-14T16:00:31.937Z,151795.31
2023-02-14T16:03:11.415Z,151749.72
2023-02-14T16:05:37.572Z,151716.72
2023-02-14T16:08:07.126Z,151715.47
2023-02-14T16:10:35.215Z,151710.38
2023-02-14T16:13:04.362Z,151725.56
2023-02-14T16:15:33.072Z,151685.03
2023-02-14T16:18:00.414Z,151688.84
2023-02-14T16:20:39.334Z,151683.78
2023-02-14T16:23:21.511Z,151672.38
2023-02-14T16:25:48.007Z,151635.63
2023-02-14T16:28:14.351Z,151617.91
2023-02-14T16:30:41.916Z,151562.19
2023-02-14T16:33:18.409Z,151578.66
2023-02-14T16:35:45.216Z,151529.25
2023-02-14T16:38:19.256Z,151512.78
2023-02-14T16:40:51.206Z,151407.75
2023-02-14T16:43:18.826Z,151444.44
2023-02-14T16:45:45.616Z,151384.91
2023-02-14T16:48:14.986Z,151407.75
2023-02-14T16:50:41.681Z,151407.75
2023-02-14T16:53:31.613Z,151429.25
2023-02-14T16:55:57.523Z,151414.06
2023-02-14T16:58:29.140Z,151368.47
2023-02-14T17:00:57.401Z,151269.72
2023-02-14T17:03:23.317Z,151238.09
2023-02-14T17:05:49.621Z,151202.66
2023-02-14T17:08:16.175Z,151184.94
2023-02-14T17:10:44.337Z,151186.22
2023-02-14T17:13:10.979Z,151183.69
2023-02-14T17:15:38.041Z,151154.63
2023-02-14T17:18:09.251Z,151139.44
2023-02-14T17:20:35.879Z,151131.81
2023-02-14T17:23:01.766Z,151123.00
2023-02-14T17:25:27.925Z,151058.47
2023-02-14T17:27:55.996Z,151063.56
2023-02-14T17:30:22.697Z,151063.56
2023-02-14T17:32:51.644Z,151053.44
2023-02-14T17:35:18.218Z,151054.69
2023-02-14T17:37:44.591Z,151029.44
2023-02-14T17:40:11.570Z,151009.16
2023-02-14T17:42:38.086Z,150969.97
2023-02-14T17:45:05.874Z,150957.38
2023-02-14T17:47:32.517Z,150921.97
2023-02-14T17:49:58.427Z,150881.44
2023-02-14T17:52:24.712Z,150873.88
2023-02-14T17:54:50.626Z,150873.88
2023-02-14T17:57:16.804Z,150861.22
2023-02-14T17:59:44.554Z,150863.75
2023-02-14T18:02:10.423Z,150863.75
2023-02-14T18:04:36.598Z,150814.50
2023-02-14T18:07:03.792Z,150820.78
2023-02-14T18:09:29.948Z,150801.84
2023-02-14T18:11:55.856Z,150780.38
2023-02-14T18:14:22.012Z,150771.50
2023-02-14T18:16:48.094Z,150785.41
2023-02-14T18:19:15.302Z,150790.47
2023-02-14T18:21:42.560Z,150774.03
2023-02-14T18:24:09.626Z,150766.47
2023-02-14T18:26:37.016Z,150799.31
2023-02-14T18:29:05.920Z,150766.47
2023-02-14T18:31:36.929Z,150770.25
2023-02-14T18:34:04.545Z,150770.25
2023-02-14T18:36:31.800Z,150717.19
2023-02-14T18:38:58.663Z,150734.88
2023-02-14T18:41:25.778Z,150733.59
2023-02-14T18:43:51.771Z,150722.28
2023-02-14T18:46:20.563Z,150699.50
2023-02-14T18:48:46.956Z,150705.84
2023-02-14T18:51:24.789Z,150719.69
2023-02-14T18:53:51.515Z,150704.59
2023-02-14T18:56:28.002Z,150707.09
2023-02-14T18:58:59.194Z,150666.66
2023-02-14T19:01:28.793Z,150680.56
2023-02-14T19:03:55.822Z,150674.25
2023-02-14T19:06:21.957Z,150684.34
2023-02-14T19:08:48.677Z,150674.25
2023-02-14T19:11:24.178Z,150648.97
2023-02-14T19:13:54.098Z,150640.16
2023-02-14T19:16:23.373Z,150666.66
2023-02-14T19:18:49.700Z,150645.19
2023-02-14T19:21:21.827Z,150627.50
2023-02-14T19:23:48.682Z,150659.09
2023-02-14T19:26:18.254Z,150662.88
2023-02-14T19:28:48.244Z,150679.28
2023-02-14T19:31:15.007Z,150684.34
2023-02-14T19:33:44.103Z,150655.31
2023-02-14T19:36:14.761Z,150613.59
2023-02-14T19:38:42.891Z,150592.16
2023-02-14T19:41:18.431Z,150584.59
2023-02-14T19:43:45.311Z,150560.63
2023-02-14T19:46:15.274Z,150510.09
2023-02-14T19:48:41.840Z,150500.00
2023-02-14T19:51:07.993Z,150506.34
2023-02-14T19:53:34.322Z,150443.19
2023-02-14T19:56:00.501Z,150494.94
2023-02-14T19:58:26.486Z,150458.34
2023-02-14T20:00:59.147Z,150434.38
2023-02-14T20:03:26.248Z,150424.25
2023-02-14T20:05:52.146Z,150377.56
2023-02-14T20:08:18.188Z,150335.94
2023-02-14T20:10:44.808Z,150320.78
2023-02-14T20:13:11.159Z,150347.31
2023-02-14T20:15:37.112Z,150315.75
2023-02-14T20:18:03.786Z,150314.50
2023-02-14T20:20:49.951Z,150293.06
2023-02-14T20:23:15.870Z,150294.31
2023-02-14T20:25:41.793Z,150306.88
2023-02-14T20:28:07.705Z,150343.47
2023-02-14T20:30:33.596Z,150348.56
2023-02-14T20:32:59.653Z,150372.53
2023-02-14T20:35:25.649Z,150347.31
2023-02-14T20:37:51.832Z,150353.59
2023-02-14T20:40:18.792Z,150339.69
2023-02-14T20:42:47.744Z,150362.41
2023-02-14T20:45:13.667Z,150314.50
2023-02-14T20:47:39.635Z,150301.84
2023-02-14T20:50:06.435Z,150262.72
2023-02-14T20:52:35.530Z,150298.09
2023-02-14T20:55:01.418Z,150266.50
2023-02-14T20:57:29.058Z,150251.34
2023-02-14T20:59:55.038Z,150214.75
2023-02-14T21:02:20.988Z,150222.34
2023-02-14T21:04:46.827Z,150233.69
2023-02-14T21:07:12.730Z,150208.47
2023-02-14T21:09:38.851Z,150200.88
2023-02-14T21:12:06.074Z,150161.78
2023-02-14T21:14:32.103Z,150188.31
2023-02-14T21:16:57.964Z,150155.50
2023-02-14T21:19:23.784Z,150146.66
2023-02-14T21:21:49.896Z,150142.88
2023-02-14T21:24:16.161Z,150091.19
2023-02-14T21:26:43.102Z,150079.88
2023-02-14T21:29:09.470Z,150049.59
2023-02-14T21:31:36.189Z,150077.34
2023-02-14T21:34:02.666Z,150088.66
2023-02-14T21:36:31.370Z,150069.75
2023-02-14T21:38:59.097Z,150052.09
2023-02-14T21:41:28.143Z,150069.75
2023-02-14T21:43:58.474Z,150049.59
2023-02-14T21:46:30.072Z,150002.94
2023-02-14T21:49:19.141Z,150000.41
2023-02-14T21:51:46.241Z,150025.66
2023-02-14T21:54:13.021Z,150039.50
2023-02-14T21:56:40.698Z,150038.22
2023-02-14T21:59:08.265Z,150043.31
2023-02-14T22:01:36.426Z,150078.59
2023-02-14T22:04:07.061Z,150071.00
2023-02-14T22:06:35.540Z,150113.91
2023-02-14T22:09:01.430Z,150093.75
2023-02-14T22:11:28.816Z,150117.69
2023-02-14T22:13:55.680Z,150125.22
2023-02-14T22:16:24.056Z,150144.13
2023-02-14T22:18:50.645Z,150141.63
2023-02-14T22:21:24.946Z,150159.28
2023-02-14T22:23:51.347Z,150150.47
2023-02-14T22:26:18.949Z,150154.25
2023-02-14T22:28:47.264Z,150153.00
2023-02-14T22:31:14.949Z,150160.53
2023-02-14T22:33:40.902Z,150121.47
2023-02-14T22:36:07.751Z,150156.75
2023-02-14T22:38:34.531Z,150144.13
2023-02-14T22:41:12.007Z,150144.13
2023-02-14T22:43:38.949Z,150149.22
2023-02-14T22:46:07.089Z,150126.47
2023-02-14T22:48:35.501Z,150134.06
2023-02-14T22:51:32.308Z,150149.22
2023-02-14T22:54:09.318Z,150160.53
2023-02-14T22:56:38.926Z,150185.78
2023-02-14T22:59:08.178Z,150151.72
2023-02-14T23:01:35.204Z,150171.91
2023-02-14T23:04:03.041Z,150208.47
2023-02-14T23:06:31.131Z,150180.72
2023-02-14T23:08:57.134Z,150185.78
2023-02-14T23:11:25.990Z,150222.34
2023-02-14T23:14:10.609Z,150243.78
2023-02-14T23:16:55.171Z,150232.41
2023-02-14T23:19:42.383Z,150223.63
2023-02-14T23:22:13.671Z,150232.41
2023-02-14T23:24:39.940Z,150255.16
2023-02-14T23:27:07.255Z,150276.59
2023-02-14T23:29:33.438Z,150272.81
2023-02-14T23:31:59.334Z,150284.19
2023-02-14T23:34:27.140Z,150291.78
2023-02-14T23:36:53.123Z,150335.94
2023-02-14T23:39:18.918Z,150299.34
2023-02-14T23:41:47.563Z,150281.63
2023-02-14T23:44:15.589Z,150258.94
2023-02-14T23:46:41.522Z,150257.69
2023-02-14T23:49:07.650Z,150214.75
2023-02-14T23:51:34.286Z,150212.25
2023-02-14T23:54:00.527Z,150208.47
2023-02-14T23:56:26.700Z,150214.75
2023-02-14T23:58:52.685Z,150194.59
